Portada
METAR-TAF:

METAR-TAF

Aeropuertos :

Granada, España

Aeropuerto de Granada

latitud: 37-11N, longitud: 003-47W, altitud: 567 m

Observación

El informe se hizo hace 26 minutos, a las 18:00 UTC
Viento 7 kt del sur, variando entre sur-sureste y suroeste
Temperatura 26°C
Humedad 45%
Presión 1019 hPa
Visibilidad 10 km o más
Escasas nubes a una altura de 6000 ft

METAR: LEGR 231800Z 19007KT 160V220 9999 FEW060 26/13 Q1019

Hora: 20:26 (18:26 UTC)

Pronóstico

El informe se hizo hace 4 horas y 26 minutos, a las 14:00 UTC
Pronóstico válido del 23 a las 15 UTC al 24 a las 15 UTC
Viento 2 kt con dirección variable
Visibilidad 10 km o más
sin nubes por debajo de 1500 m y sin presencia de cumulonimbus.
Probabilidad 40% :
Temporalmente
del 23 a las 16 UTC al 23 a las 20 UTC
Viento 10 kt del sur-suroeste

TAF: LEGR 231400Z 2315/2415 VRB02KT CAVOK TX31/2415Z TN12/2406Z PROB40 TEMPO 2316/2320 21010KT

Observaciones y pronósticos meteorológicos de más de 4000 aeropuertos (mensajes METAR y TAF).

Los puntos amarillos y rojos representan las estaciones disponibles.

Ponga el ratón en el punto deseado para ver el nombre de la estación.

Haga clic para ver las observaciones y los pronósticos meteorológicos.

Para cambiar el mapa : haga clic en los botones verdes con una cruz de color negro para hacer un zoom, en el botón verde con un guión para alejar o en las flechas verdes para mapas adyacentes.


METAR-TAF: